sensor_id;sensor_type;location;lat;lon;timestamp;temperature;humidity
2749;DHT22;1382;52.142;11.618;2023-04-06T00:01:53;7.30;45.00
2749;DHT22;1382;52.142;11.618;2023-04-06T00:04:20;7.30;45.00
2749;DHT22;1382;52.142;11.618;2023-04-06T00:06:47;7.40;45.10
2749;DHT22;1382;52.142;11.618;2023-04-06T00:09:14;7.20;45.00
2749;DHT22;1382;52.142;11.618;2023-04-06T00:11:40;7.10;45.00
2749;DHT22;1382;52.142;11.618;2023-04-06T00:14:07;7.10;45.00
2749;DHT22;1382;52.142;11.618;2023-04-06T00:16:35;7.10;45.10
2749;DHT22;1382;52.142;11.618;2023-04-06T00:19:02;7.00;45.60
2749;DHT22;1382;52.142;11.618;2023-04-06T00:21:29;7.00;45.00
2749;DHT22;1382;52.142;11.618;2023-04-06T00:23:55;6.90;45.00
2749;DHT22;1382;52.142;11.618;2023-04-06T00:26:22;7.10;45.20
2749;DHT22;1382;52.142;11.618;2023-04-06T00:28:49;6.90;45.00
2749;DHT22;1382;52.142;11.618;2023-04-06T00:31:15;6.80;45.00
2749;DHT22;1382;52.142;11.618;2023-04-06T00:33:43;6.80;45.00
2749;DHT22;1382;52.142;11.618;2023-04-06T00:36:10;6.70;45.00
2749;DHT22;1382;52.142;11.618;2023-04-06T00:38:37;6.70;45.00
2749;DHT22;1382;52.142;11.618;2023-04-06T00:41:04;6.70;45.00
2749;DHT22;1382;52.142;11.618;2023-04-06T00:43:31;6.70;45.10
2749;DHT22;1382;52.142;11.618;2023-04-06T00:45:58;6.70;45.10
2749;DHT22;1382;52.142;11.618;2023-04-06T00:48:25;6.80;45.30
2749;DHT22;1382;52.142;11.618;2023-04-06T00:50:53;6.60;45.10
2749;DHT22;1382;52.142;11.618;2023-04-06T00:53:19;6.60;45.10
2749;DHT22;1382;52.142;11.618;2023-04-06T00:55:46;6.60;45.10
2749;DHT22;1382;52.142;11.618;2023-04-06T00:58:13;6.50;45.10
2749;DHT22;1382;52.142;11.618;2023-04-06T01:00:39;6.50;45.10
2749;DHT22;1382;52.142;11.618;2023-04-06T01:03:06;6.50;45.10
2749;DHT22;1382;52.142;11.618;2023-04-06T01:05:34;6.50;45.10
2749;DHT22;1382;52.142;11.618;2023-04-06T01:08:02;6.40;45.00
2749;DHT22;1382;52.142;11.618;2023-04-06T01:10:29;6.40;45.10
2749;DHT22;1382;52.142;11.618;2023-04-06T01:12:55;6.40;45.10
2749;DHT22;1382;52.142;11.618;2023-04-06T01:15:23;6.40;45.20
2749;DHT22;1382;52.142;11.618;2023-04-06T01:17:50;6.40;45.20
2749;DHT22;1382;52.142;11.618;2023-04-06T01:20:17;6.40;45.20
2749;DHT22;1382;52.142;11.618;2023-04-06T01:22:45;6.30;45.20
2749;DHT22;1382;52.142;11.618;2023-04-06T01:25:12;6.30;45.20
2749;DHT22;1382;52.142;11.618;2023-04-06T01:27:39;6.30;45.20
2749;DHT22;1382;52.142;11.618;2023-04-06T01:30:06;6.30;45.20
2749;DHT22;1382;52.142;11.618;2023-04-06T01:32:33;6.30;45.20
2749;DHT22;1382;52.142;11.618;2023-04-06T01:35:00;6.30;45.30
2749;DHT22;1382;52.142;11.618;2023-04-06T01:37:27;6.20;45.20
2749;DHT22;1382;52.142;11.618;2023-04-06T01:39:55;6.20;45.20
2749;DHT22;1382;52.142;11.618;2023-04-06T01:42:22;6.20;45.20
2749;DHT22;1382;52.142;11.618;2023-04-06T01:44:49;6.20;45.10
2749;DHT22;1382;52.142;11.618;2023-04-06T01:47:15;6.20;45.10
2749;DHT22;1382;52.142;11.618;2023-04-06T01:49:42;6.20;45.10
2749;DHT22;1382;52.142;11.618;2023-04-06T01:52:09;6.20;45.10
2749;DHT22;1382;52.142;11.618;2023-04-06T01:54:35;6.10;45.00
2749;DHT22;1382;52.142;11.618;2023-04-06T01:57:04;6.10;45.10
2749;DHT22;1382;52.142;11.618;2023-04-06T01:59:30;6.10;45.10
2749;DHT22;1382;52.142;11.618;2023-04-06T02:01:57;6.10;45.10
2749;DHT22;1382;52.142;11.618;2023-04-06T02:04:24;6.10;45.10
2749;DHT22;1382;52.142;11.618;2023-04-06T02:06:51;6.00;45.10
2749;DHT22;1382;52.142;11.618;2023-04-06T02:09:17;6.00;45.10
2749;DHT22;1382;52.142;11.618;2023-04-06T02:11:44;6.00;45.10
2749;DHT22;1382;52.142;11.618;2023-04-06T02:14:12;6.00;45.10
2749;DHT22;1382;52.142;11.618;2023-04-06T02:16:39;6.00;45.10
2749;DHT22;1382;52.142;11.618;2023-04-06T02:19:06;6.10;45.10
2749;DHT22;1382;52.142;11.618;2023-04-06T02:21:33;6.10;45.20
2749;DHT22;1382;52.142;11.618;2023-04-06T02:24:00;6.00;45.10
2749;DHT22;1382;52.142;11.618;2023-04-06T02:26:26;5.90;45.00
2749;DHT22;1382;52.142;11.618;2023-04-06T02:28:53;6.10;45.30
2749;DHT22;1382;52.142;11.618;2023-04-06T02:31:21;5.90;45.20
2749;DHT22;1382;52.142;11.618;2023-04-06T02:33:48;5.90;45.10
2749;DHT22;1382;52.142;11.618;2023-04-06T02:36:15;5.80;45.10
2749;DHT22;1382;52.142;11.618;2023-04-06T02:38:41;5.90;45.10
2749;DHT22;1382;52.142;11.618;2023-04-06T02:41:08;5.80;45.00
2749;DHT22;1382;52.142;11.618;2023-04-06T02:43:35;5.80;45.00
2749;DHT22;1382;52.142;11.618;2023-04-06T02:46:02;5.80;45.10
2749;DHT22;1382;52.142;11.618;2023-04-06T02:48:30;5.80;45.00
2749;DHT22;1382;52.142;11.618;2023-04-06T02:50:57;5.80;45.00
2749;DHT22;1382;52.142;11.618;2023-04-06T02:53:24;5.80;44.90
2749;DHT22;1382;52.142;11.618;2023-04-06T02:55:50;5.80;44.90
2749;DHT22;1382;52.142;11.618;2023-04-06T02:58:17;5.70;44.80
2749;DHT22;1382;52.142;11.618;2023-04-06T03:00:45;5.70;44.70
2749;DHT22;1382;52.142;11.618;2023-04-06T03:03:11;5.70;44.70
2749;DHT22;1382;52.142;11.618;2023-04-06T03:05:39;5.70;44.70
2749;DHT22;1382;52.142;11.618;2023-04-06T03:08:06;5.70;44.60
2749;DHT22;1382;52.142;11.618;2023-04-06T03:10:33;5.70;44.60
2749;DHT22;1382;52.142;11.618;2023-04-06T03:12:59;5.60;44.60
2749;DHT22;1382;52.142;11.618;2023-04-06T03:15:26;5.60;44.60
2749;DHT22;1382;52.142;11.618;2023-04-06T03:17:53;5.60;44.60
2749;DHT22;1382;52.142;11.618;2023-04-06T03:20:20;5.60;44.60
2749;DHT22;1382;52.142;11.618;2023-04-06T03:22:48;5.50;44.50
2749;DHT22;1382;52.142;11.618;2023-04-06T03:25:15;5.50;44.60
2749;DHT22;1382;52.142;11.618;2023-04-06T03:27:41;5.50;44.60
2749;DHT22;1382;52.142;11.618;2023-04-06T03:30:09;5.50;44.60
2749;DHT22;1382;52.142;11.618;2023-04-06T03:32:35;5.40;44.50
2749;DHT22;1382;52.142;11.618;2023-04-06T03:35:03;5.40;44.50
2749;DHT22;1382;52.142;11.618;2023-04-06T03:37:29;5.40;44.60
2749;DHT22;1382;52.142;11.618;2023-04-06T03:39:58;5.30;44.40
2749;DHT22;1382;52.142;11.618;2023-04-06T03:42:24;5.30;44.40
2749;DHT22;1382;52.142;11.618;2023-04-06T03:44:51;5.30;44.40
2749;DHT22;1382;52.142;11.618;2023-04-06T03:47:18;5.20;44.50
2749;DHT22;1382;52.142;11.618;2023-04-06T03:49:45;5.20;44.50
2749;DHT22;1382;52.142;11.618;2023-04-06T03:52:11;5.30;44.50
2749;DHT22;1382;52.142;11.618;2023-04-06T03:54:38;5.20;44.50
2749;DHT22;1382;52.142;11.618;2023-04-06T03:57:06;5.20;44.50
2749;DHT22;1382;52.142;11.618;2023-04-06T03:59:33;5.10;44.50
2749;DHT22;1382;52.142;11.618;2023-04-06T04:02:00;5.10;44.50
2749;DHT22;1382;52.142;11.618;2023-04-06T04:04:27;5.10;44.50
2749;DHT22;1382;52.142;11.618;2023-04-06T04:06:53;5.10;44.50
2749;DHT22;1382;52.142;11.618;2023-04-06T04:09:20;5.10;44.60
2749;DHT22;1382;52.142;11.618;2023-04-06T04:11:47;5.00;44.50
2749;DHT22;1382;52.142;11.618;2023-04-06T04:14:15;5.00;44.60
2749;DHT22;1382;52.142;11.618;2023-04-06T04:16:41;5.10;44.70
2749;DHT22;1382;52.142;11.618;2023-04-06T04:19:08;5.00;44.50
2749;DHT22;1382;52.142;11.618;2023-04-06T04:21:42;5.00;44.50
2749;DHT22;1382;52.142;11.618;2023-04-06T04:24:09;5.00;44.50
2749;DHT22;1382;52.142;11.618;2023-04-06T04:26:36;4.90;44.40
2749;DHT22;1382;52.142;11.618;2023-04-06T04:29:03;4.90;44.50
2749;DHT22;1382;52.142;11.618;2023-04-06T04:31:31;4.90;44.50
2749;DHT22;1382;52.142;11.618;2023-04-06T04:33:59;4.90;44.50
2749;DHT22;1382;52.142;11.618;2023-04-06T04:36:26;4.80;44.40
2749;DHT22;1382;52.142;11.618;2023-04-06T04:38:53;4.80;44.40
2749;DHT22;1382;52.142;11.618;2023-04-06T04:41:20;4.80;44.30
2749;DHT22;1382;52.142;11.618;2023-04-06T04:43:47;4.70;44.30
2749;DHT22;1382;52.142;11.618;2023-04-06T04:46:13;4.70;44.30
2749;DHT22;1382;52.142;11.618;2023-04-06T04:48:41;4.70;44.30
2749;DHT22;1382;52.142;11.618;2023-04-06T04:51:08;4.70;44.30
2749;DHT22;1382;52.142;11.618;2023-04-06T04:53:35;4.70;44.30
2749;DHT22;1382;52.142;11.618;2023-04-06T04:56:02;4.60;44.30
2749;DHT22;1382;52.142;11.618;2023-04-06T04:58:29;4.60;44.30
2749;DHT22;1382;52.142;11.618;2023-04-06T05:00:55;4.60;44.30
2749;DHT22;1382;52.142;11.618;2023-04-06T05:03:24;4.50;44.30
2749;DHT22;1382;52.142;11.618;2023-04-06T05:05:53;4.50;44.30
2749;DHT22;1382;52.142;11.618;2023-04-06T05:08:20;4.50;44.30
2749;DHT22;1382;52.142;11.618;2023-04-06T05:10:48;4.60;44.50
2749;DHT22;1382;52.142;11.618;2023-04-06T05:13:15;4.50;44.40
2749;DHT22;1382;52.142;11.618;2023-04-06T05:15:41;4.50;44.40
2749;DHT22;1382;52.142;11.618;2023-04-06T05:18:09;4.40;44.40
2749;DHT22;1382;52.142;11.618;2023-04-06T05:20:37;4.40;44.40
2749;DHT22;1382;52.142;11.618;2023-04-06T05:23:05;4.40;44.40
2749;DHT22;1382;52.142;11.618;2023-04-06T05:25:32;4.40;44.50
2749;DHT22;1382;52.142;11.618;2023-04-06T05:27:59;4.40;44.50
2749;DHT22;1382;52.142;11.618;2023-04-06T05:30:26;4.40;44.60
2749;DHT22;1382;52.142;11.618;2023-04-06T05:32:53;4.40;44.60
2749;DHT22;1382;52.142;11.618;2023-04-06T05:35:20;4.40;44.70
2749;DHT22;1382;52.142;11.618;2023-04-06T05:37:47;4.40;44.80
2749;DHT22;1382;52.142;11.618;2023-04-06T05:40:15;4.40;44.90
2749;DHT22;1382;52.142;11.618;2023-04-06T05:42:42;4.40;45.00
2749;DHT22;1382;52.142;11.618;2023-04-06T05:45:10;4.40;45.00
2749;DHT22;1382;52.142;11.618;2023-04-06T05:47:37;4.40;45.10
2749;DHT22;1382;52.142;11.618;2023-04-06T05:50:05;4.50;45.30
2749;DHT22;1382;52.142;11.618;2023-04-06T05:52:32;4.50;45.30
2749;DHT22;1382;52.142;11.618;2023-04-06T05:54:59;4.60;46.10
2749;DHT22;1382;52.142;11.618;2023-04-06T05:57:27;4.60;45.50
2749;DHT22;1382;52.142;11.618;2023-04-06T05:59:54;4.70;45.70
2749;DHT22;1382;52.142;11.618;2023-04-06T06:02:21;4.90;45.90
2749;DHT22;1382;52.142;11.618;2023-04-06T06:04:48;4.70;45.90
2749;DHT22;1382;52.142;11.618;2023-04-06T06:07:15;4.80;46.10
2749;DHT22;1382;52.142;11.618;2023-04-06T06:09:42;4.90;46.30
2749;DHT22;1382;52.142;11.618;2023-04-06T06:12:08;4.90;46.30
2749;DHT22;1382;52.142;11.618;2023-04-06T06:14:40;5.00;46.40
2749;DHT22;1382;52.142;11.618;2023-04-06T06:17:09;5.30;46.70
2749;DHT22;1382;52.142;11.618;2023-04-06T06:19:57;5.20;46.70
2749;DHT22;1382;52.142;11.618;2023-04-06T06:22:23;5.30;46.90
2749;DHT22;1382;52.142;11.618;2023-04-06T06:24:50;5.40;46.90
2749;DHT22;1382;52.142;11.618;2023-04-06T06:27:17;5.50;47.00
2749;DHT22;1382;52.142;11.618;2023-04-06T06:29:45;5.60;47.10
2749;DHT22;1382;52.142;11.618;2023-04-06T06:32:12;5.70;47.20
2749;DHT22;1382;52.142;11.618;2023-04-06T06:34:38;5.80;47.20
2749;DHT22;1382;52.142;11.618;2023-04-06T06:37:05;6.00;47.40
2749;DHT22;1382;52.142;11.618;2023-04-06T06:39:32;6.00;47.40
2749;DHT22;1382;52.142;11.618;2023-04-06T06:41:59;6.10;47.40
2749;DHT22;1382;52.142;11.618;2023-04-06T06:44:26;6.20;47.50
2749;DHT22;1382;52.142;11.618;2023-04-06T06:46:54;6.40;47.60
2749;DHT22;1382;52.142;11.618;2023-04-06T06:49:21;6.40;47.60
2749;DHT22;1382;52.142;11.618;2023-04-06T06:51:47;6.60;47.70
2749;DHT22;1382;52.142;11.618;2023-04-06T06:54:14;6.70;47.70
2749;DHT22;1382;52.142;11.618;2023-04-06T06:56:41;6.80;47.70
2749;DHT22;1382;52.142;11.618;2023-04-06T06:59:08;6.90;47.80
2749;DHT22;1382;52.142;11.618;2023-04-06T07:01:35;7.00;47.80
2749;DHT22;1382;52.142;11.618;2023-04-06T07:04:04;7.10;47.80
2749;DHT22;1382;52.142;11.618;2023-04-06T07:06:31;7.60;48.10
2749;DHT22;1382;52.142;11.618;2023-04-06T07:08:58;7.40;48.00
2749;DHT22;1382;52.142;11.618;2023-04-06T07:11:24;7.50;48.00
2749;DHT22;1382;52.142;11.618;2023-04-06T07:13:51;7.60;48.00
2749;DHT22;1382;52.142;11.618;2023-04-06T07:16:18;7.70;48.00
2749;DHT22;1382;52.142;11.618;2023-04-06T07:18:45;7.80;48.00
2749;DHT22;1382;52.142;11.618;2023-04-06T07:21:13;7.90;48.00
2749;DHT22;1382;52.142;11.618;2023-04-06T07:23:39;8.10;48.20
2749;DHT22;1382;52.142;11.618;2023-04-06T07:26:06;8.20;48.20
2749;DHT22;1382;52.142;11.618;2023-04-06T07:28:33;8.30;48.20
2749;DHT22;1382;52.142;11.618;2023-04-06T07:31:00;8.40;48.00
2749;DHT22;1382;52.142;11.618;2023-04-06T07:33:26;8.70;48.20
2749;DHT22;1382;52.142;11.618;2023-04-06T07:35:53;8.70;48.20
2749;DHT22;1382;52.142;11.618;2023-04-06T07:38:21;8.80;48.20
2749;DHT22;1382;52.142;11.618;2023-04-06T07:40:48;8.90;48.30
2749;DHT22;1382;52.142;11.618;2023-04-06T07:43:15;9.00;48.30
2749;DHT22;1382;52.142;11.618;2023-04-06T07:45:42;9.30;48.50
2749;DHT22;1382;52.142;11.618;2023-04-06T07:48:08;9.30;48.50
2749;DHT22;1382;52.142;11.618;2023-04-06T07:50:35;9.40;48.50
2749;DHT22;1382;52.142;11.618;2023-04-06T07:53:02;9.60;48.60
2749;DHT22;1382;52.142;11.618;2023-04-06T07:55:30;9.70;48.40
2749;DHT22;1382;52.142;11.618;2023-04-06T07:57:57;9.80;48.40
2749;DHT22;1382;52.142;11.618;2023-04-06T08:00:24;10.00;47.70
2749;DHT22;1382;52.142;11.618;2023-04-06T08:02:50;10.10;47.70
2749;DHT22;1382;52.142;11.618;2023-04-06T08:05:17;10.20;47.70
2749;DHT22;1382;52.142;11.618;2023-04-06T08:07:44;10.30;47.60
2749;DHT22;1382;52.142;11.618;2023-04-06T08:10:11;10.50;47.40
2749;DHT22;1382;52.142;11.618;2023-04-06T08:12:39;10.60;47.40
2749;DHT22;1382;52.142;11.618;2023-04-06T08:15:06;10.70;47.20
2749;DHT22;1382;52.142;11.618;2023-04-06T08:17:33;10.80;47.20
2749;DHT22;1382;52.142;11.618;2023-04-06T08:20:00;11.00;47.60
2749;DHT22;1382;52.142;11.618;2023-04-06T08:22:27;11.10;47.60
2749;DHT22;1382;52.142;11.618;2023-04-06T08:24:54;11.20;47.50
2749;DHT22;1382;52.142;11.618;2023-04-06T08:27:20;11.40;47.60
2749;DHT22;1382;52.142;11.618;2023-04-06T08:29:49;11.50;47.60
2749;DHT22;1382;52.142;11.618;2023-04-06T08:32:16;11.60;47.10
2749;DHT22;1382;52.142;11.618;2023-04-06T08:34:43;11.70;47.80
2749;DHT22;1382;52.142;11.618;2023-04-06T08:37:10;12.00;47.00
2749;DHT22;1382;52.142;11.618;2023-04-06T08:39:36;11.90;46.60
2749;DHT22;1382;52.142;11.618;2023-04-06T08:42:03;12.10;46.50
2749;DHT22;1382;52.142;11.618;2023-04-06T08:44:31;12.40;45.80
2749;DHT22;1382;52.142;11.618;2023-04-06T08:47:00;12.40;46.40
2749;DHT22;1382;52.142;11.618;2023-04-06T08:49:28;12.50;46.80
2749;DHT22;1382;52.142;11.618;2023-04-06T08:51:55;12.60;46.10
2749;DHT22;1382;52.142;11.618;2023-04-06T08:54:22;12.70;46.60
2749;DHT22;1382;52.142;11.618;2023-04-06T08:56:48;12.90;46.10
2749;DHT22;1382;52.142;11.618;2023-04-06T08:59:15;12.90;45.30
2749;DHT22;1382;52.142;11.618;2023-04-06T09:01:44;13.00;45.30
2749;DHT22;1382;52.142;11.618;2023-04-06T09:04:12;13.20;45.60
2749;DHT22;1382;52.142;11.618;2023-04-06T09:06:40;13.30;45.50
2749;DHT22;1382;52.142;11.618;2023-04-06T09:09:07;13.40;45.60
2749;DHT22;1382;52.142;11.618;2023-04-06T09:11:44;13.50;45.60
2749;DHT22;1382;52.142;11.618;2023-04-06T09:14:12;13.70;44.30
2749;DHT22;1382;52.142;11.618;2023-04-06T09:16:39;13.80;45.30
2749;DHT22;1382;52.142;11.618;2023-04-06T09:19:06;13.90;45.30
2749;DHT22;1382;52.142;11.618;2023-04-06T09:21:35;14.00;45.10
2749;DHT22;1382;52.142;11.618;2023-04-06T09:24:03;14.10;45.20
2749;DHT22;1382;52.142;11.618;2023-04-06T09:26:30;14.30;45.70
2749;DHT22;1382;52.142;11.618;2023-04-06T09:28:58;14.40;45.40
2749;DHT22;1382;52.142;11.618;2023-04-06T09:31:26;14.50;44.70
2749;DHT22;1382;52.142;11.618;2023-04-06T09:33:53;14.60;45.30
2749;DHT22;1382;52.142;11.618;2023-04-06T09:36:30;14.70;45.10
2749;DHT22;1382;52.142;11.618;2023-04-06T09:38:59;14.90;44.40
2749;DHT22;1382;52.142;11.618;2023-04-06T09:41:28;15.00;44.80
2749;DHT22;1382;52.142;11.618;2023-04-06T09:44:03;15.20;45.30
2749;DHT22;1382;52.142;11.618;2023-04-06T09:46:32;15.20;44.30
2749;DHT22;1382;52.142;11.618;2023-04-06T09:49:17;15.30;45.10
2749;DHT22;1382;52.142;11.618;2023-04-06T09:51:46;15.50;47.30
2749;DHT22;1382;52.142;11.618;2023-04-06T09:54:19;15.50;46.70
2749;DHT22;1382;52.142;11.618;2023-04-06T09:56:51;15.60;47.60
2749;DHT22;1382;52.142;11.618;2023-04-06T09:59:23;15.70;48.30
2749;DHT22;1382;52.142;11.618;2023-04-06T10:01:54;15.80;47.80
2749;DHT22;1382;52.142;11.618;2023-04-06T10:04:30;15.90;48.90
2749;DHT22;1382;52.142;11.618;2023-04-06T10:06:59;16.00;46.70
2749;DHT22;1382;52.142;11.618;2023-04-06T10:09:29;16.10;48.00
2749;DHT22;1382;52.142;11.618;2023-04-06T10:11:58;16.20;48.30
2749;DHT22;1382;52.142;11.618;2023-04-06T10:14:25;16.30;48.50
2749;DHT22;1382;52.142;11.618;2023-04-06T10:16:52;16.40;47.80
2749;DHT22;1382;52.142;11.618;2023-04-06T10:19:23;16.50;48.70
2749;DHT22;1382;52.142;11.618;2023-04-06T10:21:55;16.50;47.00
2749;DHT22;1382;52.142;11.618;2023-04-06T10:24:24;16.60;47.20
2749;DHT22;1382;52.142;11.618;2023-04-06T10:26:59;16.70;46.80
2749;DHT22;1382;52.142;11.618;2023-04-06T10:29:27;16.80;47.80
2749;DHT22;1382;52.142;11.618;2023-04-06T10:31:54;16.90;48.30
2749;DHT22;1382;52.142;11.618;2023-04-06T10:34:22;17.00;46.20
2749;DHT22;1382;52.142;11.618;2023-04-06T10:36:49;17.10;47.60
2749;DHT22;1382;52.142;11.618;2023-04-06T10:39:24;17.20;45.80
2749;DHT22;1382;52.142;11.618;2023-04-06T10:41:51;17.30;43.40
2749;DHT22;1382;52.142;11.618;2023-04-06T10:44:20;17.30;47.10
2749;DHT22;1382;52.142;11.618;2023-04-06T10:46:53;17.40;45.60
2749;DHT22;1382;52.142;11.618;2023-04-06T10:49:20;17.60;46.90
2749;DHT22;1382;52.142;11.618;2023-04-06T10:51:51;17.60;47.10
2749;DHT22;1382;52.142;11.618;2023-04-06T10:54:19;17.70;46.40
2749;DHT22;1382;52.142;11.618;2023-04-06T10:56:47;17.80;46.90
2749;DHT22;1382;52.142;11.618;2023-04-06T10:59:20;18.10;47.30
2749;DHT22;1382;52.142;11.618;2023-04-06T11:01:47;18.00;47.00
2749;DHT22;1382;52.142;11.618;2023-04-06T11:04:16;18.10;48.30
2749;DHT22;1382;52.142;11.618;2023-04-06T11:06:46;18.20;48.50
2749;DHT22;1382;52.142;11.618;2023-04-06T11:09:23;18.30;48.20
2749;DHT22;1382;52.142;11.618;2023-04-06T11:11:50;18.40;47.50
2749;DHT22;1382;52.142;11.618;2023-04-06T11:14:17;18.40;47.40
2749;DHT22;1382;52.142;11.618;2023-04-06T11:16:46;18.50;46.10
2749;DHT22;1382;52.142;11.618;2023-04-06T11:19:13;18.60;46.30
2749;DHT22;1382;52.142;11.618;2023-04-06T11:21:42;18.70;47.30
2749;DHT22;1382;52.142;11.618;2023-04-06T11:24:10;18.70;45.70
2749;DHT22;1382;52.142;11.618;2023-04-06T11:26:38;18.90;43.90
2749;DHT22;1382;52.142;11.618;2023-04-06T11:29:05;18.90;44.00
2749;DHT22;1382;52.142;11.618;2023-04-06T11:31:44;19.00;43.20
2749;DHT22;1382;52.142;11.618;2023-04-06T11:34:19;19.10;38.90
2749;DHT22;1382;52.142;11.618;2023-04-06T11:36:47;19.10;38.70
2749;DHT22;1382;52.142;11.618;2023-04-06T11:39:18;19.10;44.80
2749;DHT22;1382;52.142;11.618;2023-04-06T11:41:48;19.20;45.70
2749;DHT22;1382;52.142;11.618;2023-04-06T11:44:14;19.30;43.30
2749;DHT22;1382;52.142;11.618;2023-04-06T11:46:51;19.40;44.30
2749;DHT22;1382;52.142;11.618;2023-04-06T11:49:20;19.60;39.20
2749;DHT22;1382;52.142;11.618;2023-04-06T11:51:46;19.50;39.60
2749;DHT22;1382;52.142;11.618;2023-04-06T11:54:13;19.60;39.30
2749;DHT22;1382;52.142;11.618;2023-04-06T11:56:40;19.70;45.20
2749;DHT22;1382;52.142;11.618;2023-04-06T11:59:07;19.70;45.00
2749;DHT22;1382;52.142;11.618;2023-04-06T12:01:34;19.80;43.30
2749;DHT22;1382;52.142;11.618;2023-04-06T12:04:11;19.90;44.60
2749;DHT22;1382;52.142;11.618;2023-04-06T12:06:39;20.00;44.00
2749;DHT22;1382;52.142;11.618;2023-04-06T12:09:06;20.10;44.30
2749;DHT22;1382;52.142;11.618;2023-04-06T12:11:33;20.10;45.80
2749;DHT22;1382;52.142;11.618;2023-04-06T12:13:59;20.20;47.30
2749;DHT22;1382;52.142;11.618;2023-04-06T12:16:28;20.30;45.20
2749;DHT22;1382;52.142;11.618;2023-04-06T12:18:55;20.30;45.10
2749;DHT22;1382;52.142;11.618;2023-04-06T12:21:22;20.40;44.50
2749;DHT22;1382;52.142;11.618;2023-04-06T12:23:50;20.40;43.20
2749;DHT22;1382;52.142;11.618;2023-04-06T12:26:17;20.40;42.50
2749;DHT22;1382;52.142;11.618;2023-04-06T12:28:48;20.40;42.70
2749;DHT22;1382;52.142;11.618;2023-04-06T12:31:15;20.50;42.30
2749;DHT22;1382;52.142;11.618;2023-04-06T12:33:42;20.60;40.50
2749;DHT22;1382;52.142;11.618;2023-04-06T12:36:11;20.60;40.00
2749;DHT22;1382;52.142;11.618;2023-04-06T12:38:38;20.60;41.90
2749;DHT22;1382;52.142;11.618;2023-04-06T12:41:07;20.70;41.20
2749;DHT22;1382;52.142;11.618;2023-04-06T12:43:33;20.80;41.70
2749;DHT22;1382;52.142;11.618;2023-04-06T12:46:00;20.80;42.70
2749;DHT22;1382;52.142;11.618;2023-04-06T12:48:27;20.90;43.40
2749;DHT22;1382;52.142;11.618;2023-04-06T12:50:54;20.90;45.90
2749;DHT22;1382;52.142;11.618;2023-04-06T12:53:21;21.10;46.80
2749;DHT22;1382;52.142;11.618;2023-04-06T12:55:48;21.10;41.90
2749;DHT22;1382;52.142;11.618;2023-04-06T12:58:16;21.10;43.40
2749;DHT22;1382;52.142;11.618;2023-04-06T13:00:43;21.20;42.70
2749;DHT22;1382;52.142;11.618;2023-04-06T13:03:09;21.20;43.20
2749;DHT22;1382;52.142;11.618;2023-04-06T13:05:43;21.30;44.40
2749;DHT22;1382;52.142;11.618;2023-04-06T13:08:10;21.40;41.10
2749;DHT22;1382;52.142;11.618;2023-04-06T13:10:36;21.40;43.30
2749;DHT22;1382;52.142;11.618;2023-04-06T13:13:03;21.40;40.60
2749;DHT22;1382;52.142;11.618;2023-04-06T13:15:31;21.50;40.40
2749;DHT22;1382;52.142;11.618;2023-04-06T13:17:58;21.50;39.30
2749;DHT22;1382;52.142;11.618;2023-04-06T13:20:25;21.50;40.50
2749;DHT22;1382;52.142;11.618;2023-04-06T13:22:51;21.60;43.90
2749;DHT22;1382;52.142;11.618;2023-04-06T13:25:18;21.60;42.30
2749;DHT22;1382;52.142;11.618;2023-04-06T13:27:45;21.60;42.60
2749;DHT22;1382;52.142;11.618;2023-04-06T13:30:12;21.70;42.70
2749;DHT22;1382;52.142;11.618;2023-04-06T13:32:44;21.70;43.80
2749;DHT22;1382;52.142;11.618;2023-04-06T13:35:10;21.70;43.20
2749;DHT22;1382;52.142;11.618;2023-04-06T13:37:38;21.70;44.00
2749;DHT22;1382;52.142;11.618;2023-04-06T13:40:05;21.70;39.10
2749;DHT22;1382;52.142;11.618;2023-04-06T13:42:32;21.70;41.90
2749;DHT22;1382;52.142;11.618;2023-04-06T13:44:59;21.80;41.70
2749;DHT22;1382;52.142;11.618;2023-04-06T13:47:25;21.80;41.80
2749;DHT22;1382;52.142;11.618;2023-04-06T13:49:54;21.80;40.50
2749;DHT22;1382;52.142;11.618;2023-04-06T13:52:21;21.80;40.60
2749;DHT22;1382;52.142;11.618;2023-04-06T13:54:48;21.80;39.90
2749;DHT22;1382;52.142;11.618;2023-04-06T13:57:15;21.80;39.10
2749;DHT22;1382;52.142;11.618;2023-04-06T13:59:42;21.80;36.30
2749;DHT22;1382;52.142;11.618;2023-04-06T14:02:10;21.70;38.50
2749;DHT22;1382;52.142;11.618;2023-04-06T14:04:37;21.60;36.20
2749;DHT22;1382;52.142;11.618;2023-04-06T14:07:05;21.70;37.80
2749;DHT22;1382;52.142;11.618;2023-04-06T14:09:32;21.50;35.40
2749;DHT22;1382;52.142;11.618;2023-04-06T14:11:59;21.50;37.40
2749;DHT22;1382;52.142;11.618;2023-04-06T14:14:26;21.40;37.30
2749;DHT22;1382;52.142;11.618;2023-04-06T14:16:53;21.40;36.90
2749;DHT22;1382;52.142;11.618;2023-04-06T14:19:20;21.40;36.50
2749;DHT22;1382;52.142;11.618;2023-04-06T14:21:47;21.30;38.60
2749;DHT22;1382;52.142;11.618;2023-04-06T14:24:15;21.30;38.50
2749;DHT22;1382;52.142;11.618;2023-04-06T14:26:42;21.40;38.70
2749;DHT22;1382;52.142;11.618;2023-04-06T14:29:09;21.60;39.40
2749;DHT22;1382;52.142;11.618;2023-04-06T14:31:35;21.40;36.80
2749;DHT22;1382;52.142;11.618;2023-04-06T14:34:03;21.40;36.40
2749;DHT22;1382;52.142;11.618;2023-04-06T14:36:31;21.40;35.60
2749;DHT22;1382;52.142;11.618;2023-04-06T14:38:58;21.40;36.80
2749;DHT22;1382;52.142;11.618;2023-04-06T14:41:26;21.40;36.50
2749;DHT22;1382;52.142;11.618;2023-04-06T14:43:53;21.50;36.00
2749;DHT22;1382;52.142;11.618;2023-04-06T14:46:19;21.50;37.50
2749;DHT22;1382;52.142;11.618;2023-04-06T14:48:46;21.50;37.90
2749;DHT22;1382;52.142;11.618;2023-04-06T14:51:13;21.50;37.10
2749;DHT22;1382;52.142;11.618;2023-04-06T14:53:41;21.50;35.90
2749;DHT22;1382;52.142;11.618;2023-04-06T14:56:08;21.60;35.50
2749;DHT22;1382;52.142;11.618;2023-04-06T14:58:36;21.50;38.20
2749;DHT22;1382;52.142;11.618;2023-04-06T15:01:02;21.60;35.10
2749;DHT22;1382;52.142;11.618;2023-04-06T15:03:29;21.70;35.30
2749;DHT22;1382;52.142;11.618;2023-04-06T15:05:57;21.70;35.00
2749;DHT22;1382;52.142;11.618;2023-04-06T15:08:24;21.60;36.80
2749;DHT22;1382;52.142;11.618;2023-04-06T15:10:51;21.60;37.50
2749;DHT22;1382;52.142;11.618;2023-04-06T15:13:18;21.60;36.30
2749;DHT22;1382;52.142;11.618;2023-04-06T15:15:46;21.70;35.00
2749;DHT22;1382;52.142;11.618;2023-04-06T15:18:16;21.70;35.20
2749;DHT22;1382;52.142;11.618;2023-04-06T15:20:43;21.70;37.10
2749;DHT22;1382;52.142;11.618;2023-04-06T15:23:10;21.70;37.00
2749;DHT22;1382;52.142;11.618;2023-04-06T15:25:37;21.70;36.10
2749;DHT22;1382;52.142;11.618;2023-04-06T15:28:05;21.70;38.10
2749;DHT22;1382;52.142;11.618;2023-04-06T15:30:31;21.80;37.00
2749;DHT22;1382;52.142;11.618;2023-04-06T15:33:01;21.80;36.30
2749;DHT22;1382;52.142;11.618;2023-04-06T15:35:28;21.80;37.40
2749;DHT22;1382;52.142;11.618;2023-04-06T15:37:55;21.80;36.80
2749;DHT22;1382;52.142;11.618;2023-04-06T15:40:22;21.80;37.00
2749;DHT22;1382;52.142;11.618;2023-04-06T15:42:48;21.80;35.70
2749;DHT22;1382;52.142;11.618;2023-04-06T15:45:15;21.80;38.40
2749;DHT22;1382;52.142;11.618;2023-04-06T15:47:43;22.00;38.50
2749;DHT22;1382;52.142;11.618;2023-04-06T15:50:12;21.80;37.50
2749;DHT22;1382;52.142;11.618;2023-04-06T15:52:39;21.90;37.10
2749;DHT22;1382;52.142;11.618;2023-04-06T15:55:07;21.90;37.50
2749;DHT22;1382;52.142;11.618;2023-04-06T15:57:34;21.90;37.80